Time;durP1;ratioP1;P1;durP2;ratioP2;P2;SDS_P1;SDS_P2;PMS_P1;PMS_P2;Temp;Humidity;BMP_temperature;BMP_pressure;BME280_temperature;BME280_humidity;BME280_pressure;Samples;Min_cycle;Max_cycle;Signal;HPM_P1;HPM_P2
2022/12/17 13:06:48;;;;;;;;;;;0.20;99.90;;;;;;5029112;28;19925;-68
2022/12/17 13:09:13;;;;;;;;;;;0.20;99.90;;;;;;5029081;28;19925;-65
2022/12/17 13:11:39;;;;;;;;;;;0.50;99.90;;;;;;5028888;28;19932;-66
2022/12/17 13:14:10;;;;;;;;;;;0.20;99.90;;;;;;5029245;28;20135;-65
2022/12/17 13:16:51;;;;;;;;;;;0.20;99.90;;;;;;5023671;28;19925;-66
2022/12/17 13:19:17;;;;;;;;;;;0.20;99.90;;;;;;5024860;28;20521;-66
2022/12/17 13:21:42;;;;;;;;;;;0.30;99.90;;;;;;5023040;28;19925;-65
2022/12/17 13:24:09;;;;;;;;;;;0.20;99.90;;;;;;5042414;28;20441;-66
2022/12/17 13:26:40;;;;;;;;;;;0.30;99.90;;;;;;5027691;28;20281;-66
2022/12/17 13:29:19;;;;;;;;;;;0.30;99.90;;;;;;5027593;28;19952;-65
2022/12/17 13:31:45;;;;;;;;;;;0.30;99.90;;;;;;5028308;28;19931;-66
2022/12/17 13:34:25;;;;;;;;;;;0.30;99.90;;;;;;5025567;28;19925;-65
2022/12/17 13:37:05;;;;;;;;;;;0.30;99.90;;;;;;5027450;28;19925;-64
2022/12/17 13:39:38;;;;;;;;;;;0.40;99.90;;;;;;5026838;28;19929;-65
2022/12/17 13:42:04;;;;;;;;;;;0.40;99.90;;;;;;5027790;28;19987;-64
2022/12/17 13:44:42;;;;;;;;;;;0.30;99.90;;;;;;5025685;28;20013;-65
2022/12/17 13:47:24;;;;;;;;;;;0.30;99.90;;;;;;5028068;28;20404;-64
2022/12/17 13:49:51;;;;;;;;;;;0.20;99.90;;;;;;5028567;28;19925;-63
2022/12/17 13:52:18;;;;;;;;;;;0.20;99.90;;;;;;5011304;28;20038;-63
2022/12/17 13:54:44;;;;;;;;;;;0.20;99.90;;;;;;5026667;28;19925;-65
2022/12/17 13:57:14;;;;;;;;;;;0.20;99.90;;;;;;5031331;28;19932;-64
2022/12/17 13:59:40;;;;;;;;;;;0.30;99.90;;;;;;5014263;28;19948;-64
2022/12/17 14:02:21;;;;;;;;;;;0.20;99.90;;;;;;5031829;28;19925;-64
2022/12/17 14:04:50;;;;;;;;;;;0.20;99.90;;;;;;5031717;28;19968;-64
2022/12/17 14:07:16;;;;;;;;;;;0.20;99.90;;;;;;5047078;28;20378;-64
2022/12/17 14:09:42;;;;;;;;;;;0.20;99.90;;;;;;5046723;28;19936;-65
2022/12/17 14:12:20;;;;;;;;;;;0.10;99.90;;;;;;5031552;28;19933;-65
2022/12/17 14:14:51;;;;;;;;;;;0.10;99.90;;;;;;5046533;28;19925;-65
2022/12/17 14:17:21;;;;;;;;;;;0.10;99.90;;;;;;5030930;28;19972;-64
2022/12/17 14:19:49;;;;;;;;;;;0.00;99.90;;;;;;5028083;28;20480;-64
2022/12/17 14:22:23;;;;;;;;;;;0.10;99.90;;;;;;5046996;28;19925;-64
2022/12/17 14:24:49;;;;;;;;;;;0.00;99.90;;;;;;5029218;28;19925;-65
2022/12/17 14:27:21;;;;;;;;;;;0.00;99.90;;;;;;5031630;28;19931;-65
2022/12/17 14:29:47;;;;;;;;;;;0.10;99.90;;;;;;5030363;28;19925;-65
2022/12/17 14:32:21;;;;;;;;;;;0.00;99.90;;;;;;5047049;28;20264;-66
2022/12/17 14:34:46;;;;;;;;;;;0.00;99.90;;;;;;5045107;28;19921;-65
2022/12/17 14:37:17;;;;;;;;;;;-0.10;99.90;;;;;;5027892;28;19925;-65
2022/12/17 14:39:43;;;;;;;;;;;0.00;99.90;;;;;;5028963;28;19925;-64
2022/12/17 14:42:27;;;;;;;;;;;-0.10;99.90;;;;;;5046358;28;19933;-65
2022/12/17 14:44:56;;;;;;;;;;;-0.10;99.90;;;;;;5031414;28;19933;-65
2022/12/17 14:47:26;;;;;;;;;;;-0.10;99.90;;;;;;5031343;28;20016;-65
2022/12/17 14:50:00;;;;;;;;;;;-0.10;99.90;;;;;;5030607;28;19936;-65
2022/12/17 14:52:32;;;;;;;;;;;-0.20;99.90;;;;;;5046123;28;20382;-66
2022/12/17 14:54:58;;;;;;;;;;;-0.20;99.90;;;;;;5046234;28;20438;-65
2022/12/17 14:57:23;;;;;;;;;;;-0.20;99.90;;;;;;5046401;28;19925;-65
2022/12/17 14:59:51;;;;;;;;;;;-0.20;99.90;;;;;;5046410;28;20008;-66
2022/12/17 15:02:25;;;;;;;;;;;0.10;99.90;;;;;;5046581;28;19955;-65
2022/12/17 15:04:52;;;;;;;;;;;-0.30;99.90;;;;;;5030490;28;19932;-65
2022/12/17 15:07:23;;;;;;;;;;;-0.20;99.90;;;;;;5029705;28;19949;-66
2022/12/17 15:09:48;;;;;;;;;;;-0.20;99.90;;;;;;5030839;28;19925;-65
2022/12/17 15:12:14;;;;;;;;;;;-0.30;99.90;;;;;;5030010;28;19964;-65
2022/12/17 15:14:39;;;;;;;;;;;-0.30;99.90;;;;;;5046206;28;19925;-65
2022/12/17 15:17:05;;;;;;;;;;;-0.40;99.90;;;;;;5030906;28;19929;-66
2022/12/17 15:19:31;;;;;;;;;;;-0.50;99.90;;;;;;5046320;27;19925;-66
2022/12/17 15:21:56;;;;;;;;;;;-0.50;99.90;;;;;;5013526;28;19950;-66
2022/12/17 15:24:22;;;;;;;;;;;-0.50;99.90;;;;;;5031003;28;19936;-65
2022/12/17 15:26:47;;;;;;;;;;;-0.60;99.90;;;;;;5030632;28;19967;-66
2022/12/17 15:29:13;;;;;;;;;;;-0.60;99.90;;;;;;5030722;28;19930;-66
2022/12/17 15:31:38;;;;;;;;;;;-0.70;99.90;;;;;;5029459;28;19925;-66
2022/12/17 15:34:04;;;;;;;;;;;-0.70;99.90;;;;;;5046442;28;19925;-65
2022/12/17 15:36:30;;;;;;;;;;;-0.80;99.90;;;;;;5030749;28;19989;-65
2022/12/17 15:38:56;;;;;;;;;;;-0.80;99.90;;;;;;5030615;28;19948;-65
2022/12/17 15:44:06;;;;;;;;;;;-0.80;99.90;;;;;;5043769;28;19926;-66
2022/12/17 15:46:32;;;;;;;;;;;-0.20;99.90;;;;;;5030589;28;20278;-66
2022/12/17 15:48:57;;;;;;;;;;;-0.90;99.90;;;;;;5045743;28;19929;-66
2022/12/17 15:51:23;;;;;;;;;;;-0.90;99.90;;;;;;5046200;28;19925;-66
2022/12/17 15:53:49;;;;;;;;;;;-1.00;99.90;;;;;;5030002;28;20389;-66
2022/12/17 15:56:25;;;;;;;;;;;-0.90;99.90;;;;;;5046003;28;19925;-66
2022/12/17 15:58:50;;;;;;;;;;;-0.90;99.90;;;;;;5030170;28;20323;-65
2022/12/17 16:01:16;;;;;;;;;;;-1.00;99.90;;;;;;5030561;28;19925;-65
2022/12/17 16:03:42;;;;;;;;;;;-1.00;99.90;;;;;;5030123;28;20267;-66
2022/12/17 16:06:07;;;;;;;;;;;-1.00;99.90;;;;;;5030365;28;19970;-65
2022/12/17 16:08:33;;;;;;;;;;;-1.00;99.90;;;;;;5030380;28;20265;-65
2022/12/17 16:10:59;;;;;;;;;;;-1.10;99.90;;;;;;5012420;28;19925;-65
2022/12/17 16:13:24;;;;;;;;;;;-1.10;99.90;;;;;;5045934;28;19930;-65
2022/12/17 16:15:56;;;;;;;;;;;-1.10;99.90;;;;;;5062255;28;19925;-66
2022/12/17 16:18:22;;;;;;;;;;;-1.10;99.90;;;;;;5029928;28;20031;-66
2022/12/17 16:20:48;;;;;;;;;;;-1.10;99.90;;;;;;5029765;28;19925;-65
2022/12/17 16:23:14;;;;;;;;;;;-1.20;99.90;;;;;;5029991;28;19978;-65
2022/12/17 16:25:39;;;;;;;;;;;-1.20;99.90;;;;;;5044912;28;19929;-66
2022/12/17 16:28:05;;;;;;;;;;;-1.20;99.90;;;;;;5029876;28;19932;-66
2022/12/17 16:30:30;;;;;;;;;;;-1.30;99.90;;;;;;5029968;28;20302;-66
2022/12/17 16:32:56;;;;;;;;;;;-1.30;99.90;;;;;;5029542;28;19948;-66
2022/12/17 16:35:22;;;;;;;;;;;-1.30;99.90;;;;;;5029859;28;20318;-66
2022/12/17 16:37:48;;;;;;;;;;;-1.30;99.90;;;;;;5029472;28;19987;-67
2022/12/17 16:40:14;;;;;;;;;;;-1.30;99.90;;;;;;5029278;28;19925;-65
2022/12/17 16:42:39;;;;;;;;;;;-1.30;99.90;;;;;;5029607;28;19925;-66
2022/12/17 16:45:05;;;;;;;;;;;-1.40;99.90;;;;;;5029694;28;19925;-66
2022/12/17 16:47:31;;;;;;;;;;;-1.30;99.90;;;;;;5045379;28;20032;-66
2022/12/17 16:49:56;;;;;;;;;;;-1.30;99.90;;;;;;5029245;28;19932;-64
2022/12/17 16:52:22;;;;;;;;;;;-1.40;99.90;;;;;;5044629;28;19929;-68
2022/12/17 16:54:47;;;;;;;;;;;-1.30;99.90;;;;;;5044456;27;19925;-70
2022/12/17 16:57:13;;;;;;;;;;;-1.40;99.90;;;;;;5029194;28;19925;-70
2022/12/17 16:59:38;;;;;;;;;;;-1.00;99.90;;;;;;5029332;28;20404;-71
2022/12/17 17:02:04;;;;;;;;;;;-1.50;99.90;;;;;;5028839;28;19932;-68
2022/12/17 17:04:30;;;;;;;;;;;-1.50;99.90;;;;;;5028865;28;20019;-68
2022/12/17 17:06:55;;;;;;;;;;;-1.60;99.90;;;;;;5028727;28;19926;-68
2022/12/17 17:09:22;;;;;;;;;;;-1.60;99.90;;;;;;5028273;28;20041;-68
2022/12/17 17:11:48;;;;;;;;;;;-1.60;99.90;;;;;;5010235;28;19935;-67
2022/12/17 17:14:13;;;;;;;;;;;-1.60;99.90;;;;;;5027772;28;19925;-67
2022/12/17 17:16:39;;;;;;;;;;;-1.60;99.90;;;;;;5027702;28;19925;-70
2022/12/17 17:19:05;;;;;;;;;;;-1.50;99.90;;;;;;5027460;28;20159;-68
2022/12/17 17:21:33;;;;;;;;;;;-1.70;99.90;;;;;;5027974;28;19925;-67
2022/12/17 17:24:00;;;;;;;;;;;-1.70;99.90;;;;;;5010252;28;19968;-67
2022/12/17 17:26:27;;;;;;;;;;;-1.70;99.90;;;;;;5010225;28;19929;-67
2022/12/17 17:28:53;;;;;;;;;;;-1.80;99.90;;;;;;5027543;28;19960;-65
2022/12/17 17:31:19;;;;;;;;;;;-1.70;99.90;;;;;;5029747;28;20388;-66
2022/12/17 17:33:45;;;;;;;;;;;-1.80;99.90;;;;;;5031269;28;19932;-64
2022/12/17 17:36:12;;;;;;;;;;;-1.40;99.90;;;;;;5030972;28;19925;-65
2022/12/17 17:38:39;;;;;;;;;;;-1.80;99.90;;;;;;5031550;28;19940;-67
2022/12/17 17:41:05;;;;;;;;;;;-1.70;99.90;;;;;;5031243;28;19957;-65
2022/12/17 17:43:31;;;;;;;;;;;-1.70;99.90;;;;;;5046482;28;19926;-66
2022/12/17 17:46:10;;;;;;;;;;;-1.80;99.90;;;;;;5030874;28;19925;-66
2022/12/17 17:48:36;;;;;;;;;;;-1.80;99.90;;;;;;5031229;28;19925;-67
2022/12/17 17:51:11;;;;;;;;;;;-1.80;99.90;;;;;;5029338;28;20476;-67
2022/12/17 17:53:36;;;;;;;;;;;-1.80;99.90;;;;;;5031202;28;19960;-67
2022/12/17 17:56:03;;;;;;;;;;;-1.80;99.90;;;;;;5029812;28;19973;-67
2022/12/17 17:58:28;;;;;;;;;;;-1.80;99.90;;;;;;5030929;28;19976;-67
2022/12/17 18:00:54;;;;;;;;;;;-1.80;99.90;;;;;;5046333;28;19968;-68
2022/12/17 18:03:19;;;;;;;;;;;-1.80;99.90;;;;;;5046686;28;19981;-67
2022/12/17 18:05:45;;;;;;;;;;;-1.80;99.90;;;;;;5031044;28;19925;-67
2022/12/17 18:08:10;;;;;;;;;;;-1.90;99.90;;;;;;5045818;28;19933;-67
2022/12/17 18:10:36;;;;;;;;;;;-1.90;99.90;;;;;;5030669;28;19926;-65
2022/12/17 18:15:46;;;;;;;;;;;-1.30;99.90;;;;;;5030340;28;19939;-65
2022/12/17 18:18:11;;;;;;;;;;;-2.00;99.90;;;;;;5045786;28;19933;-65
2022/12/17 18:20:37;;;;;;;;;;;-2.00;99.90;;;;;;5046008;28;20013;-65
2022/12/17 18:23:02;;;;;;;;;;;-2.00;99.90;;;;;;5029003;28;20384;-64
2022/12/17 18:25:28;;;;;;;;;;;-2.00;99.90;;;;;;5030298;28;19925;-64
2022/12/17 18:27:54;;;;;;;;;;;-2.00;99.90;;;;;;5029654;28;20355;-66
2022/12/17 18:30:19;;;;;;;;;;;-2.00;99.90;;;;;;5030364;28;19929;-67
2022/12/17 18:32:45;;;;;;;;;;;-2.00;99.90;;;;;;5030304;28;20400;-67
2022/12/17 18:35:11;;;;;;;;;;;-1.30;99.90;;;;;;5028847;28;20009;-64
2022/12/17 18:37:37;;;;;;;;;;;-2.00;99.90;;;;;;5030177;28;20031;-65
2022/12/17 18:40:03;;;;;;;;;;;-2.00;99.90;;;;;;5029783;28;19977;-65
2022/12/17 18:45:13;;;;;;;;;;;-1.90;99.90;;;;;;5045610;27;20251;-64
2022/12/17 18:47:38;;;;;;;;;;;-2.10;99.90;;;;;;5045901;28;19932;-63
2022/12/17 18:50:04;;;;;;;;;;;-2.20;99.90;;;;;;5028599;28;19972;-65
2022/12/17 18:52:30;;;;;;;;;;;-2.10;99.90;;;;;;5012342;28;19941;-65
2022/12/17 18:54:55;;;;;;;;;;;-2.10;99.90;;;;;;5045141;28;19994;-65
2022/12/17 18:57:21;;;;;;;;;;;-2.20;99.90;;;;;;5044714;28;19971;-64
2022/12/17 18:59:47;;;;;;;;;;;-2.20;99.90;;;;;;5044043;28;19925;-64
2022/12/17 19:02:13;;;;;;;;;;;-2.20;99.90;;;;;;5028817;28;19925;-65
2022/12/17 19:04:39;;;;;;;;;;;-2.10;99.90;;;;;;5011681;28;19925;-64
2022/12/17 19:07:05;;;;;;;;;;;-2.20;99.90;;;;;;5027902;28;20024;-64
2022/12/17 19:09:34;;;;;;;;;;;-2.20;99.90;;;;;;5044447;28;20383;-64
2022/12/17 19:12:00;;;;;;;;;;;-2.30;99.90;;;;;;5028834;28;19925;-67
2022/12/17 19:14:26;;;;;;;;;;;-2.20;99.90;;;;;;5011381;28;19925;-64
2022/12/17 19:16:53;;;;;;;;;;;-2.20;99.90;;;;;;5044849;28;19932;-64
2022/12/17 19:19:18;;;;;;;;;;;-2.00;99.90;;;;;;5028681;28;19931;-64
2022/12/17 19:21:44;;;;;;;;;;;-2.30;99.90;;;;;;5044235;28;20019;-64
2022/12/17 19:24:11;;;;;;;;;;;-2.30;99.90;;;;;;5010848;28;20447;-64
2022/12/17 19:26:37;;;;;;;;;;;-2.30;99.90;;;;;;5010330;28;19926;-63
2022/12/17 19:29:04;;;;;;;;;;;-2.20;99.90;;;;;;5020779;28;19978;-66
2022/12/17 19:31:30;;;;;;;;;;;-2.30;99.90;;;;;;4989031;28;19926;-64
2022/12/17 19:33:57;;;;;;;;;;;-2.30;99.90;;;;;;4986020;28;19970;-65
2022/12/17 19:36:23;;;;;;;;;;;-2.20;99.90;;;;;;4986597;28;20394;-66
2022/12/17 19:38:53;;;;;;;;;;;-2.00;99.90;;;;;;4988933;28;19929;-64
2022/12/17 19:41:19;;;;;;;;;;;-2.30;99.90;;;;;;5019755;28;20009;-64
2022/12/17 19:43:45;;;;;;;;;;;-2.30;99.90;;;;;;4988790;28;20024;-64
2022/12/17 19:46:12;;;;;;;;;;;-2.20;99.90;;;;;;4987279;28;20403;-65
2022/12/17 19:48:38;;;;;;;;;;;-2.20;99.90;;;;;;4988947;28;19926;-64
2022/12/17 19:51:05;;;;;;;;;;;-2.10;99.90;;;;;;4987733;28;19979;-65
2022/12/17 19:53:31;;;;;;;;;;;-2.20;99.90;;;;;;4988306;28;20371;-64
2022/12/17 19:56:07;;;;;;;;;;;-2.20;99.90;;;;;;4988038;28;19973;-64
2022/12/17 19:58:32;;;;;;;;;;;-2.20;99.90;;;;;;4989111;28;19926;-65
2022/12/17 20:01:04;;;;;;;;;;;-2.30;99.90;;;;;;5020720;28;19948;-64
2022/12/17 20:03:29;;;;;;;;;;;-2.30;99.90;;;;;;4988635;28;20407;-64
2022/12/17 20:05:55;;;;;;;;;;;-2.30;99.90;;;;;;4989120;28;19962;-64
2022/12/17 20:08:20;;;;;;;;;;;-2.30;99.90;;;;;;4971504;28;19925;-64
2022/12/17 20:10:46;;;;;;;;;;;-1.70;99.90;;;;;;5020433;28;19972;-64
2022/12/17 20:13:11;;;;;;;;;;;-2.30;99.90;;;;;;4988336;28;19930;-64
2022/12/17 20:15:37;;;;;;;;;;;-2.30;99.90;;;;;;4989226;28;20016;-64
2022/12/17 20:18:02;;;;;;;;;;;-2.30;99.90;;;;;;5020800;28;19975;-64
2022/12/17 20:20:28;;;;;;;;;;;-2.40;99.90;;;;;;4988494;28;20493;-63
2022/12/17 20:22:54;;;;;;;;;;;-2.40;99.90;;;;;;4986801;28;19948;-64
2022/12/17 20:25:19;;;;;;;;;;;-2.50;99.90;;;;;;4994705;28;19932;-64
2022/12/17 20:27:45;;;;;;;;;;;-2.40;99.90;;;;;;5027680;28;19925;-63
2022/12/17 20:30:10;;;;;;;;;;;-2.50;99.90;;;;;;5027773;28;19932;-64
2022/12/17 20:32:37;;;;;;;;;;;-2.50;99.90;;;;;;5027931;28;19984;-64
2022/12/17 20:35:03;;;;;;;;;;;-2.50;99.90;;;;;;5027415;28;19925;-64
2022/12/17 20:37:28;;;;;;;;;;;-2.50;99.90;;;;;;5042956;28;20322;-63
2022/12/17 20:39:54;;;;;;;;;;;-1.80;99.90;;;;;;5027465;28;20388;-63
2022/12/17 20:42:19;;;;;;;;;;;-2.50;99.90;;;;;;5042515;28;19929;-64
2022/12/17 20:44:45;;;;;;;;;;;-2.10;99.90;;;;;;5043260;28;19925;-65
2022/12/17 20:47:10;;;;;;;;;;;-2.50;99.90;;;;;;5042787;28;19929;-64
2022/12/17 20:49:36;;;;;;;;;;;-2.50;99.90;;;;;;5026101;28;20289;-64
2022/12/17 20:52:02;;;;;;;;;;;-1.70;99.90;;;;;;5027415;28;20043;-63
2022/12/17 20:54:28;;;;;;;;;;;-2.50;99.90;;;;;;5009678;28;19931;-64
2022/12/17 20:56:53;;;;;;;;;;;-2.50;99.90;;;;;;5027337;28;20016;-64
2022/12/17 20:59:19;;;;;;;;;;;-2.50;99.90;;;;;;5027154;28;19925;-64
2022/12/17 21:01:45;;;;;;;;;;;-2.60;99.90;;;;;;5010014;28;19929;-64
2022/12/17 21:04:12;;;;;;;;;;;-2.60;99.90;;;;;;5027623;28;19929;-64
2022/12/17 21:06:39;;;;;;;;;;;-2.60;99.90;;;;;;5025669;28;20001;-63
2022/12/17 21:09:05;;;;;;;;;;;-2.60;99.90;;;;;;5027216;28;20006;-65
2022/12/17 21:11:31;;;;;;;;;;;-2.70;99.90;;;;;;5026905;28;19929;-66
2022/12/17 21:13:57;;;;;;;;;;;-2.70;99.90;;;;;;5042898;28;20020;-64
2022/12/17 21:16:25;;;;;;;;;;;-2.70;99.90;;;;;;5026668;28;20072;-64
2022/12/17 21:18:50;;;;;;;;;;;-2.70;99.90;;;;;;5042918;28;19932;-64
2022/12/17 21:21:17;;;;;;;;;;;-2.70;99.90;;;;;;5027295;28;19926;-66
2022/12/17 21:23:43;;;;;;;;;;;-2.60;99.90;;;;;;5027669;28;19926;-63
2022/12/17 21:26:18;;;;;;;;;;;-2.60;99.90;;;;;;5027277;28;20028;-64
2022/12/17 21:28:44;;;;;;;;;;;-2.60;99.90;;;;;;5027351;28;20449;-64
2022/12/17 21:31:20;;;;;;;;;;;-2.60;99.90;;;;;;5010093;28;20033;-64
2022/12/17 21:33:46;;;;;;;;;;;-2.60;99.90;;;;;;4993747;28;19925;-64
2022/12/17 21:36:12;;;;;;;;;;;-2.60;99.90;;;;;;5027632;28;20298;-63
2022/12/17 21:38:38;;;;;;;;;;;-2.60;99.90;;;;;;5026007;28;19926;-64
2022/12/17 21:41:04;;;;;;;;;;;-2.60;99.90;;;;;;5009457;28;19925;-64
2022/12/17 21:43:30;;;;;;;;;;;-2.60;99.90;;;;;;5027333;28;19926;-64
2022/12/17 21:45:56;;;;;;;;;;;-2.40;99.90;;;;;;5042993;28;19925;-64
2022/12/17 21:48:22;;;;;;;;;;;-2.70;99.90;;;;;;5041747;28;20437;-67
2022/12/17 21:50:47;;;;;;;;;;;-2.70;99.90;;;;;;5026256;28;19969;-63
2022/12/17 21:53:14;;;;;;;;;;;-2.70;99.90;;;;;;5027430;28;20011;-64
2022/12/17 21:55:40;;;;;;;;;;;-2.70;99.90;;;;;;5042855;28;20239;-64
2022/12/17 21:58:07;;;;;;;;;;;-2.80;99.90;;;;;;5026911;28;20028;-65
2022/12/17 22:00:32;;;;;;;;;;;-2.50;99.90;;;;;;5026607;28;19929;-65
2022/12/17 22:02:58;;;;;;;;;;;-2.80;99.90;;;;;;5027189;28;19925;-64
2022/12/17 22:05:24;;;;;;;;;;;-2.80;99.90;;;;;;5027058;28;20015;-67
2022/12/17 22:07:49;;;;;;;;;;;-2.80;99.90;;;;;;5042501;28;20328;-64
2022/12/17 22:10:15;;;;;;;;;;;-2.70;99.90;;;;;;5026679;28;19932;-65
2022/12/17 22:15:25;;;;;;;;;;;-2.80;99.90;;;;;;5027128;28;19925;-66
2022/12/17 22:17:51;;;;;;;;;;;-2.80;99.90;;;;;;5029838;28;19929;-65
2022/12/17 22:20:17;;;;;;;;;;;-2.80;99.90;;;;;;5030376;28;19929;-65
2022/12/17 22:22:44;;;;;;;;;;;-2.80;99.90;;;;;;5045305;28;19925;-65
2022/12/17 22:25:11;;;;;;;;;;;-2.80;99.90;;;;;;5029441;28;20236;-64
2022/12/17 22:27:38;;;;;;;;;;;-2.80;99.90;;;;;;5030027;28;19925;-64
2022/12/17 22:33:04;;;;;;;;;;;-2.80;99.90;;;;;;5030210;28;19939;-64
2022/12/17 22:35:34;;;;;;;;;;;-2.90;99.90;;;;;;5029972;28;20255;-65
2022/12/17 22:38:00;;;;;;;;;;;-2.90;99.90;;;;;;5030520;28;20521;-63
2022/12/17 22:40:25;;;;;;;;;;;-2.50;99.90;;;;;;5030178;28;19926;-66
2022/12/17 22:45:39;;;;;;;;;;;-2.90;99.90;;;;;;5045637;27;19932;-64
2022/12/17 22:48:05;;;;;;;;;;;-2.90;99.90;;;;;;5029326;28;19934;-64
2022/12/17 22:50:31;;;;;;;;;;;-2.90;99.90;;;;;;5028290;28;20434;-64
2022/12/17 22:52:56;;;;;;;;;;;-2.90;99.90;;;;;;5045522;28;19926;-64
2022/12/17 22:55:22;;;;;;;;;;;-2.90;99.90;;;;;;5029556;28;19978;-63
2022/12/17 22:57:47;;;;;;;;;;;-2.90;99.90;;;;;;5029066;28;19925;-64
2022/12/17 23:00:19;;;;;;;;;;;-3.00;99.90;;;;;;5029947;28;19933;-65
2022/12/17 23:02:44;;;;;;;;;;;-3.00;99.90;;;;;;5044927;28;19929;-65
2022/12/17 23:05:10;;;;;;;;;;;-3.10;99.90;;;;;;5045718;28;19974;-63
2022/12/17 23:07:35;;;;;;;;;;;-3.00;99.90;;;;;;5044927;28;19976;-64
2022/12/17 23:10:01;;;;;;;;;;;-3.00;99.90;;;;;;5044901;28;20427;-64
2022/12/17 23:15:11;;;;;;;;;;;-3.00;99.90;;;;;;5045563;28;19935;-64
2022/12/17 23:17:36;;;;;;;;;;;-2.80;99.90;;;;;;5028509;28;20011;-64
2022/12/17 23:20:02;;;;;;;;;;;-3.00;99.90;;;;;;5029758;28;19925;-65
2022/12/17 23:22:28;;;;;;;;;;;-3.10;99.90;;;;;;5028309;28;20048;-64
2022/12/17 23:24:53;;;;;;;;;;;-3.10;99.90;;;;;;5029091;28;19921;-64
2022/12/17 23:27:19;;;;;;;;;;;-3.10;99.90;;;;;;5044352;28;20366;-64
2022/12/17 23:29:45;;;;;;;;;;;-3.10;99.90;;;;;;5028119;28;19925;-64
2022/12/17 23:32:10;;;;;;;;;;;-3.10;99.90;;;;;;5029273;28;19975;-64
2022/12/17 23:34:36;;;;;;;;;;;-3.10;99.90;;;;;;5029900;28;19929;-67
2022/12/17 23:37:01;;;;;;;;;;;-3.10;99.90;;;;;;5046187;28;19925;-64
2022/12/17 23:39:27;;;;;;;;;;;-3.10;99.90;;;;;;5029654;28;19969;-64
2022/12/17 23:41:53;;;;;;;;;;;-3.10;99.90;;;;;;5029440;28;19932;-63
2022/12/17 23:44:18;;;;;;;;;;;-3.10;99.90;;;;;;5030605;28;19932;-64
2022/12/17 23:46:44;;;;;;;;;;;-3.10;99.90;;;;;;5029940;28;20004;-64
2022/12/17 23:49:10;;;;;;;;;;;-3.10;99.90;;;;;;5012952;28;19971;-64
2022/12/17 23:51:35;;;;;;;;;;;-3.20;99.90;;;;;;5030360;28;19925;-65
2022/12/17 23:54:01;;;;;;;;;;;-3.10;99.90;;;;;;5044882;28;19950;-64
2022/12/17 23:56:27;;;;;;;;;;;-3.20;99.90;;;;;;5030689;28;19932;-64
2022/12/17 23:59:00;;;;;;;;;;;-3.20;99.90;;;;;;5030111;28;20017;-64
